sensor_id;sensor_type;location;lat;lon;timestamp;P1;durP1;ratioP1;P2;durP2;ratioP2
52858;SDS011;38721;53.098;6.596;2023-07-31T00:01:22;5.93;;;3.85;;
52858;SDS011;38721;53.098;6.596;2023-07-31T00:03:48;6.20;;;3.88;;
52858;SDS011;38721;53.098;6.596;2023-07-31T00:06:14;4.13;;;3.03;;
52858;SDS011;38721;53.098;6.596;2023-07-31T00:08:40;7.60;;;3.58;;
52858;SDS011;38721;53.098;6.596;2023-07-31T00:11:05;5.32;;;3.42;;
52858;SDS011;38721;53.098;6.596;2023-07-31T00:13:31;5.85;;;3.55;;
52858;SDS011;38721;53.098;6.596;2023-07-31T00:15:57;4.75;;;2.88;;
52858;SDS011;38721;53.098;6.596;2023-07-31T00:18:22;4.63;;;3.10;;
52858;SDS011;38721;53.098;6.596;2023-07-31T00:20:48;3.92;;;2.92;;
52858;SDS011;38721;53.098;6.596;2023-07-31T00:23:13;4.25;;;3.30;;
52858;SDS011;38721;53.098;6.596;2023-07-31T00:25:39;4.57;;;3.45;;
52858;SDS011;38721;53.098;6.596;2023-07-31T00:28:07;3.80;;;3.20;;
52858;SDS011;38721;53.098;6.596;2023-07-31T00:30:33;3.95;;;3.08;;
52858;SDS011;38721;53.098;6.596;2023-07-31T00:32:58;6.03;;;3.45;;
52858;SDS011;38721;53.098;6.596;2023-07-31T00:35:24;7.93;;;3.35;;
52858;SDS011;38721;53.098;6.596;2023-07-31T00:37:50;5.03;;;3.20;;
52858;SDS011;38721;53.098;6.596;2023-07-31T00:40:16;5.05;;;3.35;;
52858;SDS011;38721;53.098;6.596;2023-07-31T00:42:41;5.85;;;3.33;;
52858;SDS011;38721;53.098;6.596;2023-07-31T00:45:07;4.35;;;3.10;;
52858;SDS011;38721;53.098;6.596;2023-07-31T00:47:33;6.25;;;2.95;;
52858;SDS011;38721;53.098;6.596;2023-07-31T00:49:59;4.32;;;3.30;;
52858;SDS011;38721;53.098;6.596;2023-07-31T00:52:30;4.18;;;3.17;;
52858;SDS011;38721;53.098;6.596;2023-07-31T00:54:55;3.60;;;2.90;;
52858;SDS011;38721;53.098;6.596;2023-07-31T00:57:21;4.32;;;3.13;;
52858;SDS011;38721;53.098;6.596;2023-07-31T00:59:50;4.53;;;3.08;;
52858;SDS011;38721;53.098;6.596;2023-07-31T01:02:15;4.72;;;2.90;;
52858;SDS011;38721;53.098;6.596;2023-07-31T01:04:42;4.82;;;2.90;;
52858;SDS011;38721;53.098;6.596;2023-07-31T01:10:03;4.35;;;3.10;;
52858;SDS011;38721;53.098;6.596;2023-07-31T01:12:29;4.97;;;3.20;;
52858;SDS011;38721;53.098;6.596;2023-07-31T01:15:06;3.75;;;3.05;;
52858;SDS011;38721;53.098;6.596;2023-07-31T01:17:36;3.63;;;2.85;;
52858;SDS011;38721;53.098;6.596;2023-07-31T01:20:10;3.17;;;2.85;;
52858;SDS011;38721;53.098;6.596;2023-07-31T01:22:54;3.95;;;2.97;;
52858;SDS011;38721;53.098;6.596;2023-07-31T01:28:13;6.45;;;3.15;;
52858;SDS011;38721;53.098;6.596;2023-07-31T01:30:43;3.75;;;2.70;;
52858;SDS011;38721;53.098;6.596;2023-07-31T01:33:12;4.43;;;2.83;;
52858;SDS011;38721;53.098;6.596;2023-07-31T01:35:43;3.97;;;2.80;;
52858;SDS011;38721;53.098;6.596;2023-07-31T01:38:11;4.13;;;2.88;;
52858;SDS011;38721;53.098;6.596;2023-07-31T01:40:37;3.80;;;2.67;;
52858;SDS011;38721;53.098;6.596;2023-07-31T01:43:02;3.42;;;2.50;;
52858;SDS011;38721;53.098;6.596;2023-07-31T01:45:28;2.47;;;2.25;;
52858;SDS011;38721;53.098;6.596;2023-07-31T01:47:54;2.78;;;2.17;;
52858;SDS011;38721;53.098;6.596;2023-07-31T01:50:19;3.75;;;1.98;;
52858;SDS011;38721;53.098;6.596;2023-07-31T01:52:45;3.15;;;2.10;;
52858;SDS011;38721;53.098;6.596;2023-07-31T01:55:10;3.58;;;1.95;;
52858;SDS011;38721;53.098;6.596;2023-07-31T01:57:36;2.72;;;1.77;;
52858;SDS011;38721;53.098;6.596;2023-07-31T02:00:02;3.03;;;2.08;;
52858;SDS011;38721;53.098;6.596;2023-07-31T02:02:31;2.03;;;1.63;;
52858;SDS011;38721;53.098;6.596;2023-07-31T02:04:58;2.65;;;1.45;;
52858;SDS011;38721;53.098;6.596;2023-07-31T02:07:23;2.15;;;1.35;;
52858;SDS011;38721;53.098;6.596;2023-07-31T02:09:49;1.70;;;1.38;;
52858;SDS011;38721;53.098;6.596;2023-07-31T02:12:14;1.42;;;1.10;;
52858;SDS011;38721;53.098;6.596;2023-07-31T02:14:40;1.17;;;0.90;;
52858;SDS011;38721;53.098;6.596;2023-07-31T02:17:06;2.60;;;1.10;;
52858;SDS011;38721;53.098;6.596;2023-07-31T02:19:32;1.15;;;1.00;;
52858;SDS011;38721;53.098;6.596;2023-07-31T02:21:57;2.00;;;1.10;;
52858;SDS011;38721;53.098;6.596;2023-07-31T02:24:24;1.05;;;0.80;;
52858;SDS011;38721;53.098;6.596;2023-07-31T02:26:49;1.27;;;0.90;;
52858;SDS011;38721;53.098;6.596;2023-07-31T02:29:15;1.30;;;1.05;;
52858;SDS011;38721;53.098;6.596;2023-07-31T02:31:40;1.38;;;0.75;;
52858;SDS011;38721;53.098;6.596;2023-07-31T02:34:06;1.23;;;0.80;;
52858;SDS011;38721;53.098;6.596;2023-07-31T02:36:32;1.52;;;0.90;;
52858;SDS011;38721;53.098;6.596;2023-07-31T02:38:57;0.85;;;0.77;;
52858;SDS011;38721;53.098;6.596;2023-07-31T02:41:26;2.78;;;0.75;;
52858;SDS011;38721;53.098;6.596;2023-07-31T02:43:52;0.73;;;0.60;;
52858;SDS011;38721;53.098;6.596;2023-07-31T02:46:17;1.80;;;0.70;;
52858;SDS011;38721;53.098;6.596;2023-07-31T02:48:44;0.70;;;0.60;;
52858;SDS011;38721;53.098;6.596;2023-07-31T02:51:09;0.93;;;0.65;;
52858;SDS011;38721;53.098;6.596;2023-07-31T02:53:35;1.38;;;0.68;;
52858;SDS011;38721;53.098;6.596;2023-07-31T02:56:01;1.90;;;0.80;;
52858;SDS011;38721;53.098;6.596;2023-07-31T02:58:26;1.05;;;0.75;;
52858;SDS011;38721;53.098;6.596;2023-07-31T03:00:52;2.05;;;0.50;;
52858;SDS011;38721;53.098;6.596;2023-07-31T03:03:18;1.88;;;0.90;;
52858;SDS011;38721;53.098;6.596;2023-07-31T03:05:43;4.70;;;0.90;;
52858;SDS011;38721;53.098;6.596;2023-07-31T03:08:09;2.00;;;0.73;;
52858;SDS011;38721;53.098;6.596;2023-07-31T03:10:34;0.98;;;0.70;;
52858;SDS011;38721;53.098;6.596;2023-07-31T03:13:00;2.63;;;0.90;;
52858;SDS011;38721;53.098;6.596;2023-07-31T03:15:26;2.05;;;0.68;;
52858;SDS011;38721;53.098;6.596;2023-07-31T03:17:51;1.00;;;0.60;;
52858;SDS011;38721;53.098;6.596;2023-07-31T03:20:17;1.00;;;0.70;;
52858;SDS011;38721;53.098;6.596;2023-07-31T03:22:43;1.38;;;0.88;;
52858;SDS011;38721;53.098;6.596;2023-07-31T03:25:08;1.67;;;0.90;;
52858;SDS011;38721;53.098;6.596;2023-07-31T03:27:35;0.63;;;0.63;;
52858;SDS011;38721;53.098;6.596;2023-07-31T03:30:01;1.65;;;0.55;;
52858;SDS011;38721;53.098;6.596;2023-07-31T03:32:28;2.67;;;0.80;;
52858;SDS011;38721;53.098;6.596;2023-07-31T03:34:53;0.90;;;0.70;;
52858;SDS011;38721;53.098;6.596;2023-07-31T03:37:19;2.30;;;0.80;;
52858;SDS011;38721;53.098;6.596;2023-07-31T03:39:45;1.38;;;0.70;;
52858;SDS011;38721;53.098;6.596;2023-07-31T03:42:11;0.47;;;0.45;;
52858;SDS011;38721;53.098;6.596;2023-07-31T03:44:36;1.40;;;0.68;;
52858;SDS011;38721;53.098;6.596;2023-07-31T03:47:02;1.85;;;0.70;;
52858;SDS011;38721;53.098;6.596;2023-07-31T03:49:28;0.80;;;0.60;;
52858;SDS011;38721;53.098;6.596;2023-07-31T03:51:53;2.10;;;0.70;;
52858;SDS011;38721;53.098;6.596;2023-07-31T03:54:19;0.63;;;0.50;;
52858;SDS011;38721;53.098;6.596;2023-07-31T03:56:45;0.80;;;0.68;;
52858;SDS011;38721;53.098;6.596;2023-07-31T03:59:10;1.02;;;0.70;;
52858;SDS011;38721;53.098;6.596;2023-07-31T04:01:36;0.75;;;0.60;;
52858;SDS011;38721;53.098;6.596;2023-07-31T04:04:01;1.95;;;0.50;;
52858;SDS011;38721;53.098;6.596;2023-07-31T04:06:27;0.88;;;0.57;;
52858;SDS011;38721;53.098;6.596;2023-07-31T04:08:53;1.48;;;0.60;;
52858;SDS011;38721;53.098;6.596;2023-07-31T04:11:18;1.50;;;0.50;;
52858;SDS011;38721;53.098;6.596;2023-07-31T04:13:44;0.93;;;0.60;;
52858;SDS011;38721;53.098;6.596;2023-07-31T04:16:09;0.55;;;0.30;;
52858;SDS011;38721;53.098;6.596;2023-07-31T04:18:35;0.55;;;0.40;;
52858;SDS011;38721;53.098;6.596;2023-07-31T04:21:01;1.05;;;0.65;;
52858;SDS011;38721;53.098;6.596;2023-07-31T04:23:27;0.50;;;0.40;;
52858;SDS011;38721;53.098;6.596;2023-07-31T04:25:53;0.40;;;0.40;;
52858;SDS011;38721;53.098;6.596;2023-07-31T04:28:19;0.55;;;0.30;;
52858;SDS011;38721;53.098;6.596;2023-07-31T04:30:44;0.50;;;0.50;;
52858;SDS011;38721;53.098;6.596;2023-07-31T04:33:10;1.13;;;0.52;;
52858;SDS011;38721;53.098;6.596;2023-07-31T04:35:36;1.05;;;0.55;;
52858;SDS011;38721;53.098;6.596;2023-07-31T04:38:01;1.00;;;0.70;;
52858;SDS011;38721;53.098;6.596;2023-07-31T04:40:27;0.88;;;0.77;;
52858;SDS011;38721;53.098;6.596;2023-07-31T04:42:53;1.10;;;0.77;;
52858;SDS011;38721;53.098;6.596;2023-07-31T04:45:18;1.02;;;0.90;;
52858;SDS011;38721;53.098;6.596;2023-07-31T04:47:44;1.35;;;1.00;;
52858;SDS011;38721;53.098;6.596;2023-07-31T04:50:10;1.40;;;0.98;;
52858;SDS011;38721;53.098;6.596;2023-07-31T04:52:35;1.75;;;0.80;;
52858;SDS011;38721;53.098;6.596;2023-07-31T04:55:01;2.22;;;1.10;;
52858;SDS011;38721;53.098;6.596;2023-07-31T04:57:27;1.38;;;0.93;;
52858;SDS011;38721;53.098;6.596;2023-07-31T04:59:52;0.80;;;0.80;;
52858;SDS011;38721;53.098;6.596;2023-07-31T05:02:18;1.30;;;0.88;;
52858;SDS011;38721;53.098;6.596;2023-07-31T05:04:43;2.22;;;0.90;;
52858;SDS011;38721;53.098;6.596;2023-07-31T05:07:09;0.85;;;0.77;;
52858;SDS011;38721;53.098;6.596;2023-07-31T05:09:35;0.82;;;0.80;;
52858;SDS011;38721;53.098;6.596;2023-07-31T05:12:00;1.27;;;0.80;;
52858;SDS011;38721;53.098;6.596;2023-07-31T05:14:26;1.52;;;0.98;;
52858;SDS011;38721;53.098;6.596;2023-07-31T05:16:51;2.55;;;1.20;;
52858;SDS011;38721;53.098;6.596;2023-07-31T05:19:17;1.40;;;1.10;;
52858;SDS011;38721;53.098;6.596;2023-07-31T05:21:43;3.22;;;1.15;;
52858;SDS011;38721;53.098;6.596;2023-07-31T05:24:10;2.42;;;0.90;;
52858;SDS011;38721;53.098;6.596;2023-07-31T05:26:36;5.68;;;1.13;;
52858;SDS011;38721;53.098;6.596;2023-07-31T05:29:02;1.27;;;1.00;;
52858;SDS011;38721;53.098;6.596;2023-07-31T05:31:28;1.23;;;0.98;;
52858;SDS011;38721;53.098;6.596;2023-07-31T05:33:54;1.63;;;1.00;;
52858;SDS011;38721;53.098;6.596;2023-07-31T05:36:20;1.27;;;1.00;;
52858;SDS011;38721;53.098;6.596;2023-07-31T05:38:45;0.93;;;0.75;;
52858;SDS011;38721;53.098;6.596;2023-07-31T05:41:11;3.80;;;1.10;;
52858;SDS011;38721;53.098;6.596;2023-07-31T05:43:38;1.55;;;1.20;;
52858;SDS011;38721;53.098;6.596;2023-07-31T05:46:03;1.20;;;0.90;;
52858;SDS011;38721;53.098;6.596;2023-07-31T05:48:29;2.83;;;1.30;;
52858;SDS011;38721;53.098;6.596;2023-07-31T05:50:55;2.38;;;1.60;;
52858;SDS011;38721;53.098;6.596;2023-07-31T05:53:21;2.22;;;1.50;;
52858;SDS011;38721;53.098;6.596;2023-07-31T05:55:47;2.33;;;1.35;;
52858;SDS011;38721;53.098;6.596;2023-07-31T05:58:12;2.15;;;1.30;;
52858;SDS011;38721;53.098;6.596;2023-07-31T06:00:38;2.20;;;1.45;;
52858;SDS011;38721;53.098;6.596;2023-07-31T06:03:04;4.57;;;2.08;;
52858;SDS011;38721;53.098;6.596;2023-07-31T06:05:29;3.65;;;1.65;;
52858;SDS011;38721;53.098;6.596;2023-07-31T06:07:55;3.85;;;1.80;;
52858;SDS011;38721;53.098;6.596;2023-07-31T06:10:22;2.65;;;1.70;;
52858;SDS011;38721;53.098;6.596;2023-07-31T06:12:47;4.93;;;2.00;;
52858;SDS011;38721;53.098;6.596;2023-07-31T06:15:13;4.53;;;1.98;;
52858;SDS011;38721;53.098;6.596;2023-07-31T06:17:39;6.53;;;2.78;;
52858;SDS011;38721;53.098;6.596;2023-07-31T06:20:05;8.82;;;3.67;;
52858;SDS011;38721;53.098;6.596;2023-07-31T06:22:32;13.15;;;4.10;;
52858;SDS011;38721;53.098;6.596;2023-07-31T06:25:19;14.45;;;4.53;;
52858;SDS011;38721;53.098;6.596;2023-07-31T06:27:47;12.55;;;4.43;;
52858;SDS011;38721;53.098;6.596;2023-07-31T06:30:13;12.25;;;4.57;;
52858;SDS011;38721;53.098;6.596;2023-07-31T06:32:38;19.88;;;5.57;;
52858;SDS011;38721;53.098;6.596;2023-07-31T06:35:06;18.58;;;5.50;;
52858;SDS011;38721;53.098;6.596;2023-07-31T06:37:33;17.40;;;5.72;;
52858;SDS011;38721;53.098;6.596;2023-07-31T06:39:59;20.42;;;5.30;;
52858;SDS011;38721;53.098;6.596;2023-07-31T06:42:27;14.75;;;5.43;;
52858;SDS011;38721;53.098;6.596;2023-07-31T06:44:53;16.08;;;5.53;;
52858;SDS011;38721;53.098;6.596;2023-07-31T06:47:19;14.05;;;5.60;;
52858;SDS011;38721;53.098;6.596;2023-07-31T06:49:44;12.68;;;5.38;;
52858;SDS011;38721;53.098;6.596;2023-07-31T06:52:10;24.02;;;6.78;;
52858;SDS011;38721;53.098;6.596;2023-07-31T06:54:36;16.00;;;5.60;;
52858;SDS011;38721;53.098;6.596;2023-07-31T06:57:02;17.10;;;6.15;;
52858;SDS011;38721;53.098;6.596;2023-07-31T06:59:28;12.07;;;4.78;;
52858;SDS011;38721;53.098;6.596;2023-07-31T07:01:54;14.90;;;5.07;;
52858;SDS011;38721;53.098;6.596;2023-07-31T07:04:20;14.27;;;4.28;;
52858;SDS011;38721;53.098;6.596;2023-07-31T07:06:45;14.10;;;5.85;;
52858;SDS011;38721;53.098;6.596;2023-07-31T07:09:11;12.13;;;4.53;;
52858;SDS011;38721;53.098;6.596;2023-07-31T07:11:37;13.52;;;4.70;;
52858;SDS011;38721;53.098;6.596;2023-07-31T07:14:03;12.43;;;3.88;;
52858;SDS011;38721;53.098;6.596;2023-07-31T07:16:28;11.90;;;4.72;;
52858;SDS011;38721;53.098;6.596;2023-07-31T07:18:54;14.25;;;4.85;;
52858;SDS011;38721;53.098;6.596;2023-07-31T07:21:19;14.70;;;4.53;;
52858;SDS011;38721;53.098;6.596;2023-07-31T07:23:45;11.18;;;4.25;;
52858;SDS011;38721;53.098;6.596;2023-07-31T07:26:11;13.55;;;4.53;;
52858;SDS011;38721;53.098;6.596;2023-07-31T07:28:36;10.55;;;4.18;;
52858;SDS011;38721;53.098;6.596;2023-07-31T07:31:02;11.07;;;3.67;;
52858;SDS011;38721;53.098;6.596;2023-07-31T07:33:28;9.63;;;3.88;;
52858;SDS011;38721;53.098;6.596;2023-07-31T07:35:54;7.80;;;3.60;;
52858;SDS011;38721;53.098;6.596;2023-07-31T07:38:19;9.13;;;3.65;;
52858;SDS011;38721;53.098;6.596;2023-07-31T07:40:46;8.13;;;3.50;;
52858;SDS011;38721;53.098;6.596;2023-07-31T07:43:15;6.55;;;2.70;;
52858;SDS011;38721;53.098;6.596;2023-07-31T07:45:41;9.07;;;2.83;;
52858;SDS011;38721;53.098;6.596;2023-07-31T07:48:06;7.35;;;3.00;;
52858;SDS011;38721;53.098;6.596;2023-07-31T07:50:32;5.75;;;2.20;;
52858;SDS011;38721;53.098;6.596;2023-07-31T07:52:58;5.45;;;2.20;;
52858;SDS011;38721;53.098;6.596;2023-07-31T07:55:23;4.68;;;2.33;;
52858;SDS011;38721;53.098;6.596;2023-07-31T07:57:49;3.50;;;2.10;;
52858;SDS011;38721;53.098;6.596;2023-07-31T08:00:15;4.70;;;2.40;;
52858;SDS011;38721;53.098;6.596;2023-07-31T08:02:42;3.65;;;2.20;;
52858;SDS011;38721;53.098;6.596;2023-07-31T08:05:08;5.97;;;2.35;;
52858;SDS011;38721;53.098;6.596;2023-07-31T08:07:34;5.13;;;2.17;;
52858;SDS011;38721;53.098;6.596;2023-07-31T08:10:00;3.95;;;2.13;;
52858;SDS011;38721;53.098;6.596;2023-07-31T08:12:26;4.57;;;2.10;;
52858;SDS011;38721;53.098;6.596;2023-07-31T08:14:51;3.80;;;1.70;;
52858;SDS011;38721;53.098;6.596;2023-07-31T08:17:17;3.40;;;1.42;;
52858;SDS011;38721;53.098;6.596;2023-07-31T08:19:43;3.30;;;1.95;;
52858;SDS011;38721;53.098;6.596;2023-07-31T08:22:09;2.60;;;1.27;;
52858;SDS011;38721;53.098;6.596;2023-07-31T08:24:35;2.95;;;1.60;;
52858;SDS011;38721;53.098;6.596;2023-07-31T08:27:00;2.55;;;1.60;;
52858;SDS011;38721;53.098;6.596;2023-07-31T08:29:26;2.30;;;1.38;;
52858;SDS011;38721;53.098;6.596;2023-07-31T08:31:52;5.05;;;1.85;;
52858;SDS011;38721;53.098;6.596;2023-07-31T08:34:17;2.60;;;1.60;;
52858;SDS011;38721;53.098;6.596;2023-07-31T08:36:43;2.85;;;1.55;;
52858;SDS011;38721;53.098;6.596;2023-07-31T08:39:08;1.83;;;1.40;;
52858;SDS011;38721;53.098;6.596;2023-07-31T08:41:37;2.85;;;1.38;;
52858;SDS011;38721;53.098;6.596;2023-07-31T08:44:04;2.28;;;1.27;;
52858;SDS011;38721;53.098;6.596;2023-07-31T08:46:31;2.10;;;1.40;;
52858;SDS011;38721;53.098;6.596;2023-07-31T08:48:58;1.55;;;1.23;;
52858;SDS011;38721;53.098;6.596;2023-07-31T08:51:24;2.53;;;1.10;;
52858;SDS011;38721;53.098;6.596;2023-07-31T08:53:50;1.63;;;1.13;;
52858;SDS011;38721;53.098;6.596;2023-07-31T08:56:18;2.33;;;1.08;;
52858;SDS011;38721;53.098;6.596;2023-07-31T08:58:44;1.30;;;1.10;;
52858;SDS011;38721;53.098;6.596;2023-07-31T09:01:12;1.85;;;1.17;;
52858;SDS011;38721;53.098;6.596;2023-07-31T09:03:38;3.15;;;1.10;;
52858;SDS011;38721;53.098;6.596;2023-07-31T09:06:05;1.30;;;1.00;;
52858;SDS011;38721;53.098;6.596;2023-07-31T09:08:34;2.25;;;0.95;;
52858;SDS011;38721;53.098;6.596;2023-07-31T09:11:02;1.25;;;0.70;;
52858;SDS011;38721;53.098;6.596;2023-07-31T09:13:29;1.40;;;1.17;;
52858;SDS011;38721;53.098;6.596;2023-07-31T09:15:56;3.17;;;0.70;;
52858;SDS011;38721;53.098;6.596;2023-07-31T09:18:21;1.38;;;0.98;;
52858;SDS011;38721;53.098;6.596;2023-07-31T09:21:03;1.48;;;0.82;;
52858;SDS011;38721;53.098;6.596;2023-07-31T09:23:43;1.13;;;0.88;;
52858;SDS011;38721;53.098;6.596;2023-07-31T09:26:10;1.17;;;0.70;;
52858;SDS011;38721;53.098;6.596;2023-07-31T09:28:36;1.90;;;0.60;;
52858;SDS011;38721;53.098;6.596;2023-07-31T09:31:02;0.70;;;0.50;;
52858;SDS011;38721;53.098;6.596;2023-07-31T09:33:27;0.60;;;0.60;;
52858;SDS011;38721;53.098;6.596;2023-07-31T09:35:53;0.73;;;0.55;;
52858;SDS011;38721;53.098;6.596;2023-07-31T09:38:19;0.50;;;0.50;;
52858;SDS011;38721;53.098;6.596;2023-07-31T09:40:45;1.20;;;0.50;;
52858;SDS011;38721;53.098;6.596;2023-07-31T09:43:13;0.40;;;0.40;;
52858;SDS011;38721;53.098;6.596;2023-07-31T09:45:43;0.45;;;0.45;;
52858;SDS011;38721;53.098;6.596;2023-07-31T09:48:11;0.40;;;0.40;;
52858;SDS011;38721;53.098;6.596;2023-07-31T09:50:38;0.40;;;0.40;;
52858;SDS011;38721;53.098;6.596;2023-07-31T09:53:05;0.60;;;0.45;;
52858;SDS011;38721;53.098;6.596;2023-07-31T09:55:32;0.40;;;0.40;;
52858;SDS011;38721;53.098;6.596;2023-07-31T09:57:58;0.30;;;0.30;;
52858;SDS011;38721;53.098;6.596;2023-07-31T10:00:28;0.40;;;0.40;;
52858;SDS011;38721;53.098;6.596;2023-07-31T10:02:57;0.30;;;0.30;;
52858;SDS011;38721;53.098;6.596;2023-07-31T10:05:28;1.27;;;0.55;;
52858;SDS011;38721;53.098;6.596;2023-07-31T10:07:59;0.55;;;0.30;;
52858;SDS011;38721;53.098;6.596;2023-07-31T10:10:25;0.60;;;0.30;;
52858;SDS011;38721;53.098;6.596;2023-07-31T10:12:53;1.60;;;0.20;;
52858;SDS011;38721;53.098;6.596;2023-07-31T10:15:19;0.35;;;0.30;;
52858;SDS011;38721;53.098;6.596;2023-07-31T10:17:49;0.25;;;0.22;;
52858;SDS011;38721;53.098;6.596;2023-07-31T10:20:15;0.45;;;0.30;;
52858;SDS011;38721;53.098;6.596;2023-07-31T10:22:42;0.20;;;0.20;;
52858;SDS011;38721;53.098;6.596;2023-07-31T10:25:09;0.20;;;0.20;;
52858;SDS011;38721;53.098;6.596;2023-07-31T10:27:35;0.30;;;0.20;;
52858;SDS011;38721;53.098;6.596;2023-07-31T10:30:03;0.50;;;0.30;;
52858;SDS011;38721;53.098;6.596;2023-07-31T10:32:50;0.20;;;0.20;;
52858;SDS011;38721;53.098;6.596;2023-07-31T10:35:17;0.30;;;0.30;;
52858;SDS011;38721;53.098;6.596;2023-07-31T10:37:48;0.60;;;0.38;;
52858;SDS011;38721;53.098;6.596;2023-07-31T10:40:25;1.42;;;0.95;;
52858;SDS011;38721;53.098;6.596;2023-07-31T10:42:52;0.22;;;0.20;;
52858;SDS011;38721;53.098;6.596;2023-07-31T10:45:26;0.50;;;0.30;;
52858;SDS011;38721;53.098;6.596;2023-07-31T10:50:31;0.45;;;0.40;;
52858;SDS011;38721;53.098;6.596;2023-07-31T10:53:01;0.35;;;0.35;;
52858;SDS011;38721;53.098;6.596;2023-07-31T10:55:46;0.20;;;0.10;;
52858;SDS011;38721;53.098;6.596;2023-07-31T10:58:13;0.10;;;0.10;;
52858;SDS011;38721;53.098;6.596;2023-07-31T11:00:43;0.00;;;0.00;;
52858;SDS011;38721;53.098;6.596;2023-07-31T11:03:10;0.00;;;0.00;;
52858;SDS011;38721;53.098;6.596;2023-07-31T11:08:17;0.15;;;0.10;;
52858;SDS011;38721;53.098;6.596;2023-07-31T11:13:32;0.35;;;0.10;;
52858;SDS011;38721;53.098;6.596;2023-07-31T11:16:04;0.17;;;0.10;;
52858;SDS011;38721;53.098;6.596;2023-07-31T11:18:30;0.00;;;0.00;;
52858;SDS011;38721;53.098;6.596;2023-07-31T11:20:55;1.00;;;0.30;;
52858;SDS011;38721;53.098;6.596;2023-07-31T11:23:21;0.00;;;0.00;;
52858;SDS011;38721;53.098;6.596;2023-07-31T11:25:47;0.20;;;0.10;;
52858;SDS011;38721;53.098;6.596;2023-07-31T11:28:14;0.88;;;0.22;;
52858;SDS011;38721;53.098;6.596;2023-07-31T11:30:42;0.20;;;0.10;;
52858;SDS011;38721;53.098;6.596;2023-07-31T11:33:09;0.40;;;0.03;;
52858;SDS011;38721;53.098;6.596;2023-07-31T11:35:40;0.45;;;0.10;;
52858;SDS011;38721;53.098;6.596;2023-07-31T11:38:06;0.20;;;0.10;;
52858;SDS011;38721;53.098;6.596;2023-07-31T11:40:41;0.13;;;0.10;;
52858;SDS011;38721;53.098;6.596;2023-07-31T11:43:07;0.10;;;0.10;;
52858;SDS011;38721;53.098;6.596;2023-07-31T11:45:33;0.22;;;0.10;;
52858;SDS011;38721;53.098;6.596;2023-07-31T11:48:00;1.05;;;0.20;;
52858;SDS011;38721;53.098;6.596;2023-07-31T11:50:26;0.75;;;0.30;;
52858;SDS011;38721;53.098;6.596;2023-07-31T11:52:57;0.35;;;0.30;;
52858;SDS011;38721;53.098;6.596;2023-07-31T11:55:25;0.30;;;0.30;;
52858;SDS011;38721;53.098;6.596;2023-07-31T11:57:52;0.45;;;0.40;;
52858;SDS011;38721;53.098;6.596;2023-07-31T12:00:19;0.45;;;0.40;;
52858;SDS011;38721;53.098;6.596;2023-07-31T12:02:45;0.88;;;0.40;;
52858;SDS011;38721;53.098;6.596;2023-07-31T12:05:14;0.70;;;0.32;;
52858;SDS011;38721;53.098;6.596;2023-07-31T12:07:43;1.00;;;0.65;;
52858;SDS011;38721;53.098;6.596;2023-07-31T12:10:23;0.52;;;0.50;;
52858;SDS011;38721;53.098;6.596;2023-07-31T12:13:00;0.73;;;0.60;;
52858;SDS011;38721;53.098;6.596;2023-07-31T12:15:43;0.70;;;0.65;;
52858;SDS011;38721;53.098;6.596;2023-07-31T12:18:10;0.80;;;0.65;;
52858;SDS011;38721;53.098;6.596;2023-07-31T12:20:45;0.80;;;0.47;;
52858;SDS011;38721;53.098;6.596;2023-07-31T12:23:19;0.70;;;0.70;;
52858;SDS011;38721;53.098;6.596;2023-07-31T12:26:06;0.60;;;0.50;;
52858;SDS011;38721;53.098;6.596;2023-07-31T12:28:36;0.70;;;0.60;;
52858;SDS011;38721;53.098;6.596;2023-07-31T12:31:03;1.13;;;0.82;;
52858;SDS011;38721;53.098;6.596;2023-07-31T12:33:33;1.70;;;0.63;;
52858;SDS011;38721;53.098;6.596;2023-07-31T12:36:04;2.55;;;1.00;;
52858;SDS011;38721;53.098;6.596;2023-07-31T12:38:35;3.47;;;1.20;;
52858;SDS011;38721;53.098;6.596;2023-07-31T12:41:03;1.25;;;1.15;;
52858;SDS011;38721;53.098;6.596;2023-07-31T12:43:32;2.75;;;1.02;;
52858;SDS011;38721;53.098;6.596;2023-07-31T12:45:58;1.02;;;0.82;;
52858;SDS011;38721;53.098;6.596;2023-07-31T12:48:24;1.30;;;0.80;;
52858;SDS011;38721;53.098;6.596;2023-07-31T12:50:50;2.80;;;0.90;;
52858;SDS011;38721;53.098;6.596;2023-07-31T12:53:16;2.38;;;1.20;;
52858;SDS011;38721;53.098;6.596;2023-07-31T12:55:41;4.25;;;1.40;;
52858;SDS011;38721;53.098;6.596;2023-07-31T12:58:07;1.67;;;0.90;;
52858;SDS011;38721;53.098;6.596;2023-07-31T13:00:33;1.45;;;1.10;;
52858;SDS011;38721;53.098;6.596;2023-07-31T13:03:02;3.90;;;1.20;;
52858;SDS011;38721;53.098;6.596;2023-07-31T13:05:28;2.60;;;1.05;;
52858;SDS011;38721;53.098;6.596;2023-07-31T13:07:54;1.70;;;0.90;;
52858;SDS011;38721;53.098;6.596;2023-07-31T13:10:20;2.53;;;1.27;;
52858;SDS011;38721;53.098;6.596;2023-07-31T13:12:47;3.38;;;1.27;;
52858;SDS011;38721;53.098;6.596;2023-07-31T13:15:13;2.15;;;1.02;;
52858;SDS011;38721;53.098;6.596;2023-07-31T13:17:39;2.03;;;1.10;;
52858;SDS011;38721;53.098;6.596;2023-07-31T13:20:05;2.63;;;1.20;;
52858;SDS011;38721;53.098;6.596;2023-07-31T13:22:31;3.15;;;1.30;;
52858;SDS011;38721;53.098;6.596;2023-07-31T13:24:57;2.45;;;1.58;;
52858;SDS011;38721;53.098;6.596;2023-07-31T13:27:23;2.28;;;1.58;;
52858;SDS011;38721;53.098;6.596;2023-07-31T13:29:49;1.85;;;1.45;;
52858;SDS011;38721;53.098;6.596;2023-07-31T13:32:16;3.42;;;1.60;;
52858;SDS011;38721;53.098;6.596;2023-07-31T13:34:43;5.72;;;1.95;;
52858;SDS011;38721;53.098;6.596;2023-07-31T13:37:09;4.97;;;1.75;;
52858;SDS011;38721;53.098;6.596;2023-07-31T13:39:35;3.58;;;1.90;;
52858;SDS011;38721;53.098;6.596;2023-07-31T13:42:04;4.35;;;2.05;;
52858;SDS011;38721;53.098;6.596;2023-07-31T13:44:37;2.95;;;1.45;;
52858;SDS011;38721;53.098;6.596;2023-07-31T13:47:03;4.28;;;1.83;;
52858;SDS011;38721;53.098;6.596;2023-07-31T13:49:29;5.43;;;2.30;;
52858;SDS011;38721;53.098;6.596;2023-07-31T13:51:56;6.03;;;2.30;;
52858;SDS011;38721;53.098;6.596;2023-07-31T13:54:23;5.55;;;2.00;;
52858;SDS011;38721;53.098;6.596;2023-07-31T13:56:49;4.97;;;2.17;;
52858;SDS011;38721;53.098;6.596;2023-07-31T13:59:15;4.85;;;1.95;;
52858;SDS011;38721;53.098;6.596;2023-07-31T14:01:42;4.53;;;2.10;;
52858;SDS011;38721;53.098;6.596;2023-07-31T14:04:08;6.13;;;2.75;;
52858;SDS011;38721;53.098;6.596;2023-07-31T14:06:34;4.88;;;2.20;;
52858;SDS011;38721;53.098;6.596;2023-07-31T14:09:00;5.53;;;1.80;;
52858;SDS011;38721;53.098;6.596;2023-07-31T14:11:26;7.70;;;2.08;;
52858;SDS011;38721;53.098;6.596;2023-07-31T14:13:52;4.25;;;1.90;;
52858;SDS011;38721;53.098;6.596;2023-07-31T14:16:18;5.75;;;2.10;;
52858;SDS011;38721;53.098;6.596;2023-07-31T14:18:43;3.50;;;2.08;;
52858;SDS011;38721;53.098;6.596;2023-07-31T14:21:10;6.00;;;2.47;;
52858;SDS011;38721;53.098;6.596;2023-07-31T14:23:37;6.68;;;2.50;;
52858;SDS011;38721;53.098;6.596;2023-07-31T14:26:02;3.88;;;2.10;;
52858;SDS011;38721;53.098;6.596;2023-07-31T14:28:28;6.75;;;2.50;;
52858;SDS011;38721;53.098;6.596;2023-07-31T14:30:53;8.82;;;2.45;;
52858;SDS011;38721;53.098;6.596;2023-07-31T14:33:19;6.63;;;2.65;;
52858;SDS011;38721;53.098;6.596;2023-07-31T14:35:45;7.75;;;2.33;;
52858;SDS011;38721;53.098;6.596;2023-07-31T14:38:10;7.82;;;2.92;;
52858;SDS011;38721;53.098;6.596;2023-07-31T14:40:36;9.45;;;2.70;;
52858;SDS011;38721;53.098;6.596;2023-07-31T14:43:03;4.40;;;2.10;;
52858;SDS011;38721;53.098;6.596;2023-07-31T14:45:29;5.65;;;2.70;;
52858;SDS011;38721;53.098;6.596;2023-07-31T14:47:54;5.88;;;2.90;;
52858;SDS011;38721;53.098;6.596;2023-07-31T14:50:23;7.65;;;3.63;;
52858;SDS011;38721;53.098;6.596;2023-07-31T14:52:58;5.22;;;2.50;;
52858;SDS011;38721;53.098;6.596;2023-07-31T14:55:24;5.35;;;2.70;;
52858;SDS011;38721;53.098;6.596;2023-07-31T14:57:50;3.72;;;2.20;;